sensor_id;sensor_type;location;lat;lon;timestamp;temperature;humidity
23520;DHT22;11936;50.820;4.336;2023-02-12T00:02:15;10.40;99.90
23520;DHT22;11936;50.820;4.336;2023-02-12T00:04:40;10.50;99.90
23520;DHT22;11936;50.820;4.336;2023-02-12T00:07:06;10.50;99.90
23520;DHT22;11936;50.820;4.336;2023-02-12T00:09:32;10.50;99.90
23520;DHT22;11936;50.820;4.336;2023-02-12T00:11:58;10.50;99.90
23520;DHT22;11936;50.820;4.336;2023-02-12T00:14:23;10.60;99.90
23520;DHT22;11936;50.820;4.336;2023-02-12T00:16:49;10.60;99.90
23520;DHT22;11936;50.820;4.336;2023-02-12T00:19:15;10.60;99.90
23520;DHT22;11936;50.820;4.336;2023-02-12T00:21:40;10.70;99.90
23520;DHT22;11936;50.820;4.336;2023-02-12T00:24:06;10.60;99.90
23520;DHT22;11936;50.820;4.336;2023-02-12T00:26:32;10.70;99.90
23520;DHT22;11936;50.820;4.336;2023-02-12T00:28:57;10.70;99.90
23520;DHT22;11936;50.820;4.336;2023-02-12T00:31:25;10.70;99.90
23520;DHT22;11936;50.820;4.336;2023-02-12T00:33:52;10.70;99.90
23520;DHT22;11936;50.820;4.336;2023-02-12T00:36:20;10.70;99.90
23520;DHT22;11936;50.820;4.336;2023-02-12T00:38:47;10.70;99.90
23520;DHT22;11936;50.820;4.336;2023-02-12T00:41:14;10.70;99.90
23520;DHT22;11936;50.820;4.336;2023-02-12T00:43:40;10.60;99.90
23520;DHT22;11936;50.820;4.336;2023-02-12T00:46:05;10.60;99.90
23520;DHT22;11936;50.820;4.336;2023-02-12T00:48:32;10.50;99.90
23520;DHT22;11936;50.820;4.336;2023-02-12T00:50:58;10.50;99.90
23520;DHT22;11936;50.820;4.336;2023-02-12T00:53:24;10.50;99.90
23520;DHT22;11936;50.820;4.336;2023-02-12T00:55:50;10.60;99.90
23520;DHT22;11936;50.820;4.336;2023-02-12T00:58:15;10.60;99.90
23520;DHT22;11936;50.820;4.336;2023-02-12T01:00:42;10.60;99.90
23520;DHT22;11936;50.820;4.336;2023-02-12T01:03:08;10.60;99.90
23520;DHT22;11936;50.820;4.336;2023-02-12T01:05:34;10.60;99.90
23520;DHT22;11936;50.820;4.336;2023-02-12T01:07:59;10.50;99.90
23520;DHT22;11936;50.820;4.336;2023-02-12T01:10:26;10.50;99.90
23520;DHT22;11936;50.820;4.336;2023-02-12T01:12:52;10.40;99.90
23520;DHT22;11936;50.820;4.336;2023-02-12T01:15:18;10.50;99.90
23520;DHT22;11936;50.820;4.336;2023-02-12T01:17:44;10.60;99.90
23520;DHT22;11936;50.820;4.336;2023-02-12T01:20:16;10.60;99.90
23520;DHT22;11936;50.820;4.336;2023-02-12T01:22:42;10.60;99.90
23520;DHT22;11936;50.820;4.336;2023-02-12T01:25:08;10.60;99.90
23520;DHT22;11936;50.820;4.336;2023-02-12T01:27:34;10.60;99.90
23520;DHT22;11936;50.820;4.336;2023-02-12T01:30:00;10.50;99.90
23520;DHT22;11936;50.820;4.336;2023-02-12T01:32:25;10.40;99.90
23520;DHT22;11936;50.820;4.336;2023-02-12T01:34:51;10.50;99.90
23520;DHT22;11936;50.820;4.336;2023-02-12T01:37:16;10.50;99.90
23520;DHT22;11936;50.820;4.336;2023-02-12T01:39:42;10.60;99.90
23520;DHT22;11936;50.820;4.336;2023-02-12T01:42:11;10.60;99.90
23520;DHT22;11936;50.820;4.336;2023-02-12T01:45:16;10.50;99.90
23520;DHT22;11936;50.820;4.336;2023-02-12T01:47:27;10.60;99.90
23520;DHT22;11936;50.820;4.336;2023-02-12T01:49:53;10.60;99.90
23520;DHT22;11936;50.820;4.336;2023-02-12T01:52:30;10.60;99.90
23520;DHT22;11936;50.820;4.336;2023-02-12T01:54:59;10.50;99.90
23520;DHT22;11936;50.820;4.336;2023-02-12T01:57:29;10.50;99.90
23520;DHT22;11936;50.820;4.336;2023-02-12T01:59:57;10.40;99.90
23520;DHT22;11936;50.820;4.336;2023-02-12T02:02:25;10.30;99.90
23520;DHT22;11936;50.820;4.336;2023-02-12T02:04:55;10.40;99.90
23520;DHT22;11936;50.820;4.336;2023-02-12T02:07:22;10.60;99.90
23520;DHT22;11936;50.820;4.336;2023-02-12T02:09:47;10.60;99.90
23520;DHT22;11936;50.820;4.336;2023-02-12T02:12:14;10.60;99.90
23520;DHT22;11936;50.820;4.336;2023-02-12T02:15:00;10.60;99.90
23520;DHT22;11936;50.820;4.336;2023-02-12T02:17:58;10.70;99.90
23520;DHT22;11936;50.820;4.336;2023-02-12T02:26:48;10.40;99.90
23520;DHT22;11936;50.820;4.336;2023-02-12T02:32:21;10.50;99.90
23520;DHT22;11936;50.820;4.336;2023-02-12T02:35:14;10.50;99.90
23520;DHT22;11936;50.820;4.336;2023-02-12T02:37:47;10.50;99.90
23520;DHT22;11936;50.820;4.336;2023-02-12T02:40:41;10.50;99.90
23520;DHT22;11936;50.820;4.336;2023-02-12T02:43:08;10.50;99.90
23520;DHT22;11936;50.820;4.336;2023-02-12T02:45:51;10.50;99.90
23520;DHT22;11936;50.820;4.336;2023-02-12T02:48:22;10.50;99.90
23520;DHT22;11936;50.820;4.336;2023-02-12T02:50:59;10.40;99.90
23520;DHT22;11936;50.820;4.336;2023-02-12T02:53:30;10.50;99.90
23520;DHT22;11936;50.820;4.336;2023-02-12T02:55:58;10.50;99.90
23520;DHT22;11936;50.820;4.336;2023-02-12T02:58:47;10.50;99.90
23520;DHT22;11936;50.820;4.336;2023-02-12T03:01:53;10.50;99.90
23520;DHT22;11936;50.820;4.336;2023-02-12T03:04:41;10.40;99.90
23520;DHT22;11936;50.820;4.336;2023-02-12T03:09:48;10.60;99.90
23520;DHT22;11936;50.820;4.336;2023-02-12T03:12:19;10.60;99.90
23520;DHT22;11936;50.820;4.336;2023-02-12T03:14:56;10.60;99.90
23520;DHT22;11936;50.820;4.336;2023-02-12T03:17:30;10.60;99.90
23520;DHT22;11936;50.820;4.336;2023-02-12T03:19:59;10.60;99.90
23520;DHT22;11936;50.820;4.336;2023-02-12T03:22:38;10.60;99.90
23520;DHT22;11936;50.820;4.336;2023-02-12T03:25:14;10.60;99.90
23520;DHT22;11936;50.820;4.336;2023-02-12T03:27:43;10.50;99.90
23520;DHT22;11936;50.820;4.336;2023-02-12T03:30:11;10.30;99.90
23520;DHT22;11936;50.820;4.336;2023-02-12T03:40:59;10.50;99.90
23520;DHT22;11936;50.820;4.336;2023-02-12T03:44:26;10.50;99.90
23520;DHT22;11936;50.820;4.336;2023-02-12T03:47:03;10.40;99.90
23520;DHT22;11936;50.820;4.336;2023-02-12T03:50:01;10.30;99.90
23520;DHT22;11936;50.820;4.336;2023-02-12T03:52:26;10.40;99.90
23520;DHT22;11936;50.820;4.336;2023-02-12T03:54:52;10.30;99.90
23520;DHT22;11936;50.820;4.336;2023-02-12T03:57:23;10.40;99.90
23520;DHT22;11936;50.820;4.336;2023-02-12T03:59:55;10.40;99.90
23520;DHT22;11936;50.820;4.336;2023-02-12T04:02:21;10.30;99.90
23520;DHT22;11936;50.820;4.336;2023-02-12T04:04:47;10.30;99.90
23520;DHT22;11936;50.820;4.336;2023-02-12T04:07:13;10.30;99.90
23520;DHT22;11936;50.820;4.336;2023-02-12T04:09:39;10.20;99.90
23520;DHT22;11936;50.820;4.336;2023-02-12T04:12:12;10.40;99.90
23520;DHT22;11936;50.820;4.336;2023-02-12T04:14:53;10.40;99.90
23520;DHT22;11936;50.820;4.336;2023-02-12T04:20:10;10.40;99.90
23520;DHT22;11936;50.820;4.336;2023-02-12T04:28:10;10.40;99.90
23520;DHT22;11936;50.820;4.336;2023-02-12T04:30:46;10.50;99.90
23520;DHT22;11936;50.820;4.336;2023-02-12T04:33:17;10.50;99.90
23520;DHT22;11936;50.820;4.336;2023-02-12T04:35:58;10.40;99.90
23520;DHT22;11936;50.820;4.336;2023-02-12T04:38:29;10.40;99.90
23520;DHT22;11936;50.820;4.336;2023-02-12T04:40:58;10.40;99.90
23520;DHT22;11936;50.820;4.336;2023-02-12T04:43:31;10.40;99.90
23520;DHT22;11936;50.820;4.336;2023-02-12T04:45:59;10.40;99.90
23520;DHT22;11936;50.820;4.336;2023-02-12T04:48:24;10.40;99.90
23520;DHT22;11936;50.820;4.336;2023-02-12T04:50:50;10.30;99.90
23520;DHT22;11936;50.820;4.336;2023-02-12T04:53:16;10.40;99.90
23520;DHT22;11936;50.820;4.336;2023-02-12T04:55:42;10.40;99.90
23520;DHT22;11936;50.820;4.336;2023-02-12T04:58:07;10.40;99.90
23520;DHT22;11936;50.820;4.336;2023-02-12T05:00:33;10.30;99.90
23520;DHT22;11936;50.820;4.336;2023-02-12T05:02:59;10.30;99.90
23520;DHT22;11936;50.820;4.336;2023-02-12T05:05:24;10.40;99.90
23520;DHT22;11936;50.820;4.336;2023-02-12T05:07:50;10.40;99.90
23520;DHT22;11936;50.820;4.336;2023-02-12T05:10:16;10.50;99.90
23520;DHT22;11936;50.820;4.336;2023-02-12T05:12:41;10.40;99.90
23520;DHT22;11936;50.820;4.336;2023-02-12T05:15:07;10.30;99.90
23520;DHT22;11936;50.820;4.336;2023-02-12T05:17:33;10.30;99.90
23520;DHT22;11936;50.820;4.336;2023-02-12T05:19:59;10.20;99.90
23520;DHT22;11936;50.820;4.336;2023-02-12T05:22:24;10.20;99.90
23520;DHT22;11936;50.820;4.336;2023-02-12T05:24:50;10.30;99.90
23520;DHT22;11936;50.820;4.336;2023-02-12T05:27:16;10.30;99.90
23520;DHT22;11936;50.820;4.336;2023-02-12T05:29:42;10.40;99.90
23520;DHT22;11936;50.820;4.336;2023-02-12T05:32:07;10.30;99.90
23520;DHT22;11936;50.820;4.336;2023-02-12T05:34:33;10.30;99.90
23520;DHT22;11936;50.820;4.336;2023-02-12T05:36:59;10.30;99.90
23520;DHT22;11936;50.820;4.336;2023-02-12T05:39:25;10.20;99.90
23520;DHT22;11936;50.820;4.336;2023-02-12T05:41:50;10.20;99.90
23520;DHT22;11936;50.820;4.336;2023-02-12T05:44:16;10.20;99.90
23520;DHT22;11936;50.820;4.336;2023-02-12T05:46:42;10.20;99.90
23520;DHT22;11936;50.820;4.336;2023-02-12T05:49:08;10.10;99.90
23520;DHT22;11936;50.820;4.336;2023-02-12T05:51:34;10.10;99.90
23520;DHT22;11936;50.820;4.336;2023-02-12T05:54:03;10.10;99.90
23520;DHT22;11936;50.820;4.336;2023-02-12T05:56:29;10.10;99.90
23520;DHT22;11936;50.820;4.336;2023-02-12T05:59:00;10.10;99.90
23520;DHT22;11936;50.820;4.336;2023-02-12T06:01:37;10.00;99.90
23520;DHT22;11936;50.820;4.336;2023-02-12T06:04:05;10.10;99.90
23520;DHT22;11936;50.820;4.336;2023-02-12T06:06:32;10.20;99.90
23520;DHT22;11936;50.820;4.336;2023-02-12T06:08:58;10.20;99.90
23520;DHT22;11936;50.820;4.336;2023-02-12T06:11:24;10.30;99.90
23520;DHT22;11936;50.820;4.336;2023-02-12T06:13:50;10.30;99.90
23520;DHT22;11936;50.820;4.336;2023-02-12T06:16:23;10.30;99.90
23520;DHT22;11936;50.820;4.336;2023-02-12T06:18:50;10.40;99.90
23520;DHT22;11936;50.820;4.336;2023-02-12T06:21:19;10.50;99.90
23520;DHT22;11936;50.820;4.336;2023-02-12T06:23:45;10.60;99.90
23520;DHT22;11936;50.820;4.336;2023-02-12T06:26:11;10.50;99.90
23520;DHT22;11936;50.820;4.336;2023-02-12T06:28:37;10.50;99.90
23520;DHT22;11936;50.820;4.336;2023-02-12T06:31:03;10.50;99.90
23520;DHT22;11936;50.820;4.336;2023-02-12T06:33:29;10.40;99.90
23520;DHT22;11936;50.820;4.336;2023-02-12T06:35:54;10.40;99.90
23520;DHT22;11936;50.820;4.336;2023-02-12T06:38:20;10.30;99.90
23520;DHT22;11936;50.820;4.336;2023-02-12T06:40:46;10.40;99.90
23520;DHT22;11936;50.820;4.336;2023-02-12T06:43:11;10.40;99.90
23520;DHT22;11936;50.820;4.336;2023-02-12T06:45:37;10.50;99.90
23520;DHT22;11936;50.820;4.336;2023-02-12T06:48:02;10.50;99.90
23520;DHT22;11936;50.820;4.336;2023-02-12T06:50:28;10.50;99.90
23520;DHT22;11936;50.820;4.336;2023-02-12T06:52:54;10.60;99.90
23520;DHT22;11936;50.820;4.336;2023-02-12T06:55:20;10.60;99.90
23520;DHT22;11936;50.820;4.336;2023-02-12T06:57:45;10.50;99.90
23520;DHT22;11936;50.820;4.336;2023-02-12T07:00:11;10.60;99.90
23520;DHT22;11936;50.820;4.336;2023-02-12T07:02:37;10.60;99.90
23520;DHT22;11936;50.820;4.336;2023-02-12T07:05:03;10.60;99.90
23520;DHT22;11936;50.820;4.336;2023-02-12T07:07:29;10.50;99.90
23520;DHT22;11936;50.820;4.336;2023-02-12T07:09:54;10.50;99.90
23520;DHT22;11936;50.820;4.336;2023-02-12T07:12:20;10.50;99.90
23520;DHT22;11936;50.820;4.336;2023-02-12T07:14:45;10.50;99.90
23520;DHT22;11936;50.820;4.336;2023-02-12T07:17:11;10.50;99.90
23520;DHT22;11936;50.820;4.336;2023-02-12T07:19:37;10.50;99.90
23520;DHT22;11936;50.820;4.336;2023-02-12T07:22:02;10.50;99.90
23520;DHT22;11936;50.820;4.336;2023-02-12T07:24:28;10.50;99.90
23520;DHT22;11936;50.820;4.336;2023-02-12T07:26:54;10.50;99.90
23520;DHT22;11936;50.820;4.336;2023-02-12T07:29:19;10.50;99.90
23520;DHT22;11936;50.820;4.336;2023-02-12T07:31:45;10.50;99.90
23520;DHT22;11936;50.820;4.336;2023-02-12T07:34:11;10.50;99.90
23520;DHT22;11936;50.820;4.336;2023-02-12T07:36:37;10.50;99.90
23520;DHT22;11936;50.820;4.336;2023-02-12T07:39:03;10.50;99.90
23520;DHT22;11936;50.820;4.336;2023-02-12T07:41:31;10.60;99.90
23520;DHT22;11936;50.820;4.336;2023-02-12T07:44:03;10.60;99.90
23520;DHT22;11936;50.820;4.336;2023-02-12T07:46:34;10.60;99.90
23520;DHT22;11936;50.820;4.336;2023-02-12T07:49:04;10.60;99.90
23520;DHT22;11936;50.820;4.336;2023-02-12T07:51:31;10.50;99.90
23520;DHT22;11936;50.820;4.336;2023-02-12T07:53:57;10.40;99.90
23520;DHT22;11936;50.820;4.336;2023-02-12T07:56:25;10.50;99.90
23520;DHT22;11936;50.820;4.336;2023-02-12T07:58:55;10.60;99.90
23520;DHT22;11936;50.820;4.336;2023-02-12T08:01:22;10.50;99.90
23520;DHT22;11936;50.820;4.336;2023-02-12T08:03:49;10.50;99.90
23520;DHT22;11936;50.820;4.336;2023-02-12T08:06:18;10.50;99.90
23520;DHT22;11936;50.820;4.336;2023-02-12T08:08:45;10.60;99.90
23520;DHT22;11936;50.820;4.336;2023-02-12T08:11:13;10.60;99.90
23520;DHT22;11936;50.820;4.336;2023-02-12T08:13:39;10.60;99.90
23520;DHT22;11936;50.820;4.336;2023-02-12T08:16:13;10.60;99.90
23520;DHT22;11936;50.820;4.336;2023-02-12T08:18:39;10.70;99.90
23520;DHT22;11936;50.820;4.336;2023-02-12T08:21:07;10.70;99.90
23520;DHT22;11936;50.820;4.336;2023-02-12T08:23:33;10.70;99.90
23520;DHT22;11936;50.820;4.336;2023-02-12T08:26:09;10.60;99.90
23520;DHT22;11936;50.820;4.336;2023-02-12T08:28:36;10.60;99.90
23520;DHT22;11936;50.820;4.336;2023-02-12T08:31:06;10.70;99.90
23520;DHT22;11936;50.820;4.336;2023-02-12T08:33:32;10.70;99.90
23520;DHT22;11936;50.820;4.336;2023-02-12T08:36:02;10.70;99.90
23520;DHT22;11936;50.820;4.336;2023-02-12T08:38:28;10.80;99.90
23520;DHT22;11936;50.820;4.336;2023-02-12T08:40:53;10.80;99.90
23520;DHT22;11936;50.820;4.336;2023-02-12T08:43:19;10.80;99.90
23520;DHT22;11936;50.820;4.336;2023-02-12T08:45:45;10.80;99.90
23520;DHT22;11936;50.820;4.336;2023-02-12T08:48:11;10.80;99.90
23520;DHT22;11936;50.820;4.336;2023-02-12T08:50:36;10.80;99.90
23520;DHT22;11936;50.820;4.336;2023-02-12T08:53:03;10.70;99.90
23520;DHT22;11936;50.820;4.336;2023-02-12T08:55:29;10.80;99.90
23520;DHT22;11936;50.820;4.336;2023-02-12T08:57:54;10.80;99.90
23520;DHT22;11936;50.820;4.336;2023-02-12T09:00:22;10.80;99.90
23520;DHT22;11936;50.820;4.336;2023-02-12T09:02:48;10.60;99.90
23520;DHT22;11936;50.820;4.336;2023-02-12T09:05:13;10.60;99.90
23520;DHT22;11936;50.820;4.336;2023-02-12T09:07:39;10.70;99.90
23520;DHT22;11936;50.820;4.336;2023-02-12T09:10:05;10.80;99.90
23520;DHT22;11936;50.820;4.336;2023-02-12T09:12:31;10.80;99.90
23520;DHT22;11936;50.820;4.336;2023-02-12T09:14:56;10.90;99.90
23520;DHT22;11936;50.820;4.336;2023-02-12T09:17:22;10.90;99.90
23520;DHT22;11936;50.820;4.336;2023-02-12T09:19:52;11.10;99.90
23520;DHT22;11936;50.820;4.336;2023-02-12T09:22:18;11.10;99.90
23520;DHT22;11936;50.820;4.336;2023-02-12T09:24:43;11.10;99.90
23520;DHT22;11936;50.820;4.336;2023-02-12T09:27:09;11.00;99.90
23520;DHT22;11936;50.820;4.336;2023-02-12T09:29:34;11.00;99.90
23520;DHT22;11936;50.820;4.336;2023-02-12T09:32:00;11.00;99.90
23520;DHT22;11936;50.820;4.336;2023-02-12T09:34:29;11.10;99.90
23520;DHT22;11936;50.820;4.336;2023-02-12T09:36:55;11.10;99.90
23520;DHT22;11936;50.820;4.336;2023-02-12T09:39:20;11.10;99.90
23520;DHT22;11936;50.820;4.336;2023-02-12T09:44:56;11.20;99.90
23520;DHT22;11936;50.820;4.336;2023-02-12T09:47:35;11.20;99.90
23520;DHT22;11936;50.820;4.336;2023-02-12T09:52:57;11.20;99.90
23520;DHT22;11936;50.820;4.336;2023-02-12T09:55:28;11.20;99.90
23520;DHT22;11936;50.820;4.336;2023-02-12T09:57:55;11.30;99.90
23520;DHT22;11936;50.820;4.336;2023-02-12T10:00:26;11.40;99.90
23520;DHT22;11936;50.820;4.336;2023-02-12T10:02:53;11.30;99.90
23520;DHT22;11936;50.820;4.336;2023-02-12T10:05:31;11.20;99.90
23520;DHT22;11936;50.820;4.336;2023-02-12T10:16:58;11.10;99.90
23520;DHT22;11936;50.820;4.336;2023-02-12T10:25:50;11.30;99.90
23520;DHT22;11936;50.820;4.336;2023-02-12T10:28:25;11.30;99.90
23520;DHT22;11936;50.820;4.336;2023-02-12T10:31:01;11.20;99.90
23520;DHT22;11936;50.820;4.336;2023-02-12T10:36:10;11.20;99.90
23520;DHT22;11936;50.820;4.336;2023-02-12T10:38:45;11.30;99.90
23520;DHT22;11936;50.820;4.336;2023-02-12T10:41:14;11.30;99.90
23520;DHT22;11936;50.820;4.336;2023-02-12T10:43:40;11.40;99.90
23520;DHT22;11936;50.820;4.336;2023-02-12T10:46:08;11.40;99.90
23520;DHT22;11936;50.820;4.336;2023-02-12T10:48:37;11.30;99.90
23520;DHT22;11936;50.820;4.336;2023-02-12T10:51:16;11.20;99.90
23520;DHT22;11936;50.820;4.336;2023-02-12T10:53:45;11.30;99.90
23520;DHT22;11936;50.820;4.336;2023-02-12T10:56:13;11.30;99.90
23520;DHT22;11936;50.820;4.336;2023-02-12T10:58:59;11.30;99.90
23520;DHT22;11936;50.820;4.336;2023-02-12T11:01:32;11.30;99.90
23520;DHT22;11936;50.820;4.336;2023-02-12T11:04:00;11.30;99.90
23520;DHT22;11936;50.820;4.336;2023-02-12T11:06:56;11.30;99.90
23520;DHT22;11936;50.820;4.336;2023-02-12T11:09:34;11.40;99.90
23520;DHT22;11936;50.820;4.336;2023-02-12T11:12:00;11.40;99.90
23520;DHT22;11936;50.820;4.336;2023-02-12T11:14:27;11.40;99.90
23520;DHT22;11936;50.820;4.336;2023-02-12T11:16:54;11.40;99.90
23520;DHT22;11936;50.820;4.336;2023-02-12T11:19:23;11.50;99.90
23520;DHT22;11936;50.820;4.336;2023-02-12T11:21:50;11.60;99.90
23520;DHT22;11936;50.820;4.336;2023-02-12T11:26:50;11.50;99.90
23520;DHT22;11936;50.820;4.336;2023-02-12T11:29:21;11.70;99.90
23520;DHT22;11936;50.820;4.336;2023-02-12T11:32:02;11.80;99.90
23520;DHT22;11936;50.820;4.336;2023-02-12T11:34:27;11.80;99.90
23520;DHT22;11936;50.820;4.336;2023-02-12T11:36:54;11.80;99.90
23520;DHT22;11936;50.820;4.336;2023-02-12T11:39:27;11.80;99.90
23520;DHT22;11936;50.820;4.336;2023-02-12T11:41:55;11.80;99.90
23520;DHT22;11936;50.820;4.336;2023-02-12T11:44:33;11.80;99.90
23520;DHT22;11936;50.820;4.336;2023-02-12T11:47:05;11.80;99.90
23520;DHT22;11936;50.820;4.336;2023-02-12T11:49:37;11.90;99.90
23520;DHT22;11936;50.820;4.336;2023-02-12T11:52:04;12.00;99.90
23520;DHT22;11936;50.820;4.336;2023-02-12T11:54:41;11.90;99.90
23520;DHT22;11936;50.820;4.336;2023-02-12T12:00:17;12.10;99.90
23520;DHT22;11936;50.820;4.336;2023-02-12T12:03:01;12.10;99.90
23520;DHT22;11936;50.820;4.336;2023-02-12T12:05:43;12.00;99.90
23520;DHT22;11936;50.820;4.336;2023-02-12T12:08:16;12.10;99.90
23520;DHT22;11936;50.820;4.336;2023-02-12T12:10:48;12.10;99.90
23520;DHT22;11936;50.820;4.336;2023-02-12T12:13:19;12.00;99.90
23520;DHT22;11936;50.820;4.336;2023-02-12T12:15:51;11.90;99.90
23520;DHT22;11936;50.820;4.336;2023-02-12T12:18:47;12.00;99.90
23520;DHT22;11936;50.820;4.336;2023-02-12T12:21:40;12.10;99.90
23520;DHT22;11936;50.820;4.336;2023-02-12T12:26:45;11.80;99.90
23520;DHT22;11936;50.820;4.336;2023-02-12T12:32:08;11.70;99.90
23520;DHT22;11936;50.820;4.336;2023-02-12T12:34:36;11.70;99.90
23520;DHT22;11936;50.820;4.336;2023-02-12T12:39:54;11.70;99.90
23520;DHT22;11936;50.820;4.336;2023-02-12T12:53:30;11.80;99.90
23520;DHT22;11936;50.820;4.336;2023-02-12T12:59:06;11.60;99.90
23520;DHT22;11936;50.820;4.336;2023-02-12T13:04:31;11.70;99.90
23520;DHT22;11936;50.820;4.336;2023-02-12T13:10:24;11.70;99.90
23520;DHT22;11936;50.820;4.336;2023-02-12T13:13:19;11.50;99.90
23520;DHT22;11936;50.820;4.336;2023-02-12T13:27:24;11.70;99.90
23520;DHT22;11936;50.820;4.336;2023-02-12T13:32:43;11.80;99.90
23520;DHT22;11936;50.820;4.336;2023-02-12T13:35:18;11.80;99.90
23520;DHT22;11936;50.820;4.336;2023-02-12T13:37:48;11.80;99.90
23520;DHT22;11936;50.820;4.336;2023-02-12T13:40:17;11.90;99.90
23520;DHT22;11936;50.820;4.336;2023-02-12T13:42:54;12.00;99.90
23520;DHT22;11936;50.820;4.336;2023-02-12T13:45:50;12.10;99.90
23520;DHT22;11936;50.820;4.336;2023-02-12T13:48:28;12.00;99.90
23520;DHT22;11936;50.820;4.336;2023-02-12T13:51:15;12.00;99.90
23520;DHT22;11936;50.820;4.336;2023-02-12T13:58:51;12.00;99.90
23520;DHT22;11936;50.820;4.336;2023-02-12T14:01:36;11.90;99.90
23520;DHT22;11936;50.820;4.336;2023-02-12T14:06:55;11.90;99.90
23520;DHT22;11936;50.820;4.336;2023-02-12T14:09:28;11.70;99.90
23520;DHT22;11936;50.820;4.336;2023-02-12T14:11:54;11.70;99.90
23520;DHT22;11936;50.820;4.336;2023-02-12T14:14:36;11.70;99.90
23520;DHT22;11936;50.820;4.336;2023-02-12T14:20:22;11.80;99.90
23520;DHT22;11936;50.820;4.336;2023-02-12T14:30:23;11.90;99.90
23520;DHT22;11936;50.820;4.336;2023-02-12T14:40:51;11.90;99.90
23520;DHT22;11936;50.820;4.336;2023-02-12T14:43:37;11.90;99.90
23520;DHT22;11936;50.820;4.336;2023-02-12T14:48:56;12.00;99.90
23520;DHT22;11936;50.820;4.336;2023-02-12T14:54:01;11.90;99.90
23520;DHT22;11936;50.820;4.336;2023-02-12T14:56:44;11.90;99.90
23520;DHT22;11936;50.820;4.336;2023-02-12T14:59:15;11.90;99.90
23520;DHT22;11936;50.820;4.336;2023-02-12T15:01:42;11.80;99.90
23520;DHT22;11936;50.820;4.336;2023-02-12T15:04:18;11.80;99.90
23520;DHT22;11936;50.820;4.336;2023-02-12T15:06:56;11.80;99.90
23520;DHT22;11936;50.820;4.336;2023-02-12T15:09:46;11.90;99.90
23520;DHT22;11936;50.820;4.336;2023-02-12T15:12:30;11.80;99.90
23520;DHT22;11936;50.820;4.336;2023-02-12T15:15:39;11.70;99.90
23520;DHT22;11936;50.820;4.336;2023-02-12T15:18:27;11.70;99.90
23520;DHT22;11936;50.820;4.336;2023-02-12T15:23:45;11.70;99.90
23520;DHT22;11936;50.820;4.336;2023-02-12T15:26:19;11.60;99.90
23520;DHT22;11936;50.820;4.336;2023-02-12T15:28:49;11.60;99.90
23520;DHT22;11936;50.820;4.336;2023-02-12T15:31:24;11.70;99.90
23520;DHT22;11936;50.820;4.336;2023-02-12T15:33:51;11.60;99.90
23520;DHT22;11936;50.820;4.336;2023-02-12T15:36:22;11.60;99.90
23520;DHT22;11936;50.820;4.336;2023-02-12T15:38:52;11.60;99.90
23520;DHT22;11936;50.820;4.336;2023-02-12T15:41:37;11.50;99.90
23520;DHT22;11936;50.820;4.336;2023-02-12T15:47:08;11.60;99.90
23520;DHT22;11936;50.820;4.336;2023-02-12T15:49:36;11.60;99.90
23520;DHT22;11936;50.820;4.336;2023-02-12T15:52:16;11.60;99.90
23520;DHT22;11936;50.820;4.336;2023-02-12T15:54:44;11.70;99.90
23520;DHT22;11936;50.820;4.336;2023-02-12T15:57:12;11.60;99.90
23520;DHT22;11936;50.820;4.336;2023-02-12T15:59:39;11.70;99.90
23520;DHT22;11936;50.820;4.336;2023-02-12T16:02:27;11.60;99.90
23520;DHT22;11936;50.820;4.336;2023-02-12T16:04:57;11.50;99.90
23520;DHT22;11936;50.820;4.336;2023-02-12T16:07:25;11.50;99.90
23520;DHT22;11936;50.820;4.336;2023-02-12T16:09:53;11.60;99.90
23520;DHT22;11936;50.820;4.336;2023-02-12T16:12:21;11.50;99.90
23520;DHT22;11936;50.820;4.336;2023-02-12T16:14:53;11.40;99.90
23520;DHT22;11936;50.820;4.336;2023-02-12T16:17:27;11.50;99.90
23520;DHT22;11936;50.820;4.336;2023-02-12T16:19:59;11.40;99.90
23520;DHT22;11936;50.820;4.336;2023-02-12T16:22:44;11.50;99.90
23520;DHT22;11936;50.820;4.336;2023-02-12T16:25:15;11.50;99.90
23520;DHT22;11936;50.820;4.336;2023-02-12T16:28:04;11.40;99.90
23520;DHT22;11936;50.820;4.336;2023-02-12T16:30:35;11.50;99.90
23520;DHT22;11936;50.820;4.336;2023-02-12T16:33:30;11.50;99.90
23520;DHT22;11936;50.820;4.336;2023-02-12T16:36:44;11.50;99.90
23520;DHT22;11936;50.820;4.336;2023-02-12T16:38:54;11.50;99.90
23520;DHT22;11936;50.820;4.336;2023-02-12T16:41:23;11.50;99.90
23520;DHT22;11936;50.820;4.336;2023-02-12T16:46:27;11.40;99.90
23520;DHT22;11936;50.820;4.336;2023-02-12T16:48:54;11.40;99.90
23520;DHT22;11936;50.820;4.336;2023-02-12T16:51:30;11.40;99.90
23520;DHT22;11936;50.820;4.336;2023-02-12T16:53:58;11.50;99.90
23520;DHT22;11936;50.820;4.336;2023-02-12T16:56:27;11.40;99.90
23520;DHT22;11936;50.820;4.336;2023-02-12T16:58:56;11.50;99.90
23520;DHT22;11936;50.820;4.336;2023-02-12T17:01:26;11.40;99.90
23520;DHT22;11936;50.820;4.336;2023-02-12T17:03:53;11.40;99.90
23520;DHT22;11936;50.820;4.336;2023-02-12T17:06:21;11.30;99.90
23520;DHT22;11936;50.820;4.336;2023-02-12T17:08:47;11.30;99.90
23520;DHT22;11936;50.820;4.336;2023-02-12T17:11:14;11.30;99.90
23520;DHT22;11936;50.820;4.336;2023-02-12T17:13:46;11.40;99.90
23520;DHT22;11936;50.820;4.336;2023-02-12T17:16:12;11.40;99.90
23520;DHT22;11936;50.820;4.336;2023-02-12T17:18:38;11.40;99.90
23520;DHT22;11936;50.820;4.336;2023-02-12T17:21:28;11.40;99.90
23520;DHT22;11936;50.820;4.336;2023-02-12T17:23:52;11.40;99.90
23520;DHT22;11936;50.820;4.336;2023-02-12T17:26:22;11.50;99.90
23520;DHT22;11936;50.820;4.336;2023-02-12T17:28:47;11.50;99.90
23520;DHT22;11936;50.820;4.336;2023-02-12T17:31:13;11.40;99.90
23520;DHT22;11936;50.820;4.336;2023-02-12T17:33:39;11.40;99.90
23520;DHT22;11936;50.820;4.336;2023-02-12T17:36:05;11.40;99.90
23520;DHT22;11936;50.820;4.336;2023-02-12T17:38:31;11.40;99.90
23520;DHT22;11936;50.820;4.336;2023-02-12T17:40:57;11.20;99.90
23520;DHT22;11936;50.820;4.336;2023-02-12T17:43:22;11.20;99.90
23520;DHT22;11936;50.820;4.336;2023-02-12T17:45:48;11.30;99.90
23520;DHT22;11936;50.820;4.336;2023-02-12T17:48:15;11.20;99.90
23520;DHT22;11936;50.820;4.336;2023-02-12T17:50:41;11.30;99.90
23520;DHT22;11936;50.820;4.336;2023-02-12T17:53:07;11.20;99.90
23520;DHT22;11936;50.820;4.336;2023-02-12T17:55:38;11.30;99.90
23520;DHT22;11936;50.820;4.336;2023-02-12T17:58:04;11.40;99.90
23520;DHT22;11936;50.820;4.336;2023-02-12T18:00:30;11.40;99.90
23520;DHT22;11936;50.820;4.336;2023-02-12T18:02:56;11.30;99.90
23520;DHT22;11936;50.820;4.336;2023-02-12T18:05:21;11.20;99.90
23520;DHT22;11936;50.820;4.336;2023-02-12T18:07:47;11.20;99.90
23520;DHT22;11936;50.820;4.336;2023-02-12T18:10:13;11.30;99.90
23520;DHT22;11936;50.820;4.336;2023-02-12T18:12:38;11.20;99.90